sensor_id;sensor_type;location;lat;lon;timestamp;pressure;altitude;pressure_sealevel;temperature;humidity
75008;BME280;63554;48.940;12.050;2022-12-18T00:02:37;98679.66;;;-6.56;93.08
75008;BME280;63554;48.940;12.050;2022-12-18T00:06:40;98659.69;;;-6.60;92.88
75008;BME280;63554;48.940;12.050;2022-12-18T00:10:45;98658.34;;;-6.51;93.21
75008;BME280;63554;48.940;12.050;2022-12-18T00:14:49;98659.41;;;-6.38;93.08
75008;BME280;63554;48.940;12.050;2022-12-18T00:18:55;98662.75;;;-6.34;93.24
75008;BME280;63554;48.940;12.050;2022-12-18T00:22:58;98658.66;;;-6.40;93.18
75008;BME280;63554;48.940;12.050;2022-12-18T00:27:00;98666.47;;;-6.39;93.02
75008;BME280;63554;48.940;12.050;2022-12-18T00:31:06;98686.50;;;-6.36;93.20
75008;BME280;63554;48.940;12.050;2022-12-18T00:35:09;98677.34;;;-6.45;92.98
75008;BME280;63554;48.940;12.050;2022-12-18T00:39:12;98683.19;;;-6.40;92.95
75008;BME280;63554;48.940;12.050;2022-12-18T00:43:15;98697.19;;;-6.39;93.43
75008;BME280;63554;48.940;12.050;2022-12-18T00:47:19;98699.25;;;-6.44;93.57
75008;BME280;63554;48.940;12.050;2022-12-18T00:51:21;98701.44;;;-6.52;93.13
75008;BME280;63554;48.940;12.050;2022-12-18T00:55:24;98707.47;;;-6.50;93.69
75008;BME280;63554;48.940;12.050;2022-12-18T00:59:27;98703.19;;;-6.53;92.91
75008;BME280;63554;48.940;12.050;2022-12-18T01:03:32;98691.88;;;-6.55;93.36
75008;BME280;63554;48.940;12.050;2022-12-18T01:07:35;98683.75;;;-6.50;93.09
75008;BME280;63554;48.940;12.050;2022-12-18T01:11:38;98683.25;;;-6.41;93.16
75008;BME280;63554;48.940;12.050;2022-12-18T01:15:48;98675.22;;;-6.38;93.75
75008;BME280;63554;48.940;12.050;2022-12-18T01:19:52;98692.69;;;-6.37;93.20
75008;BME280;63554;48.940;12.050;2022-12-18T01:23:57;98709.19;;;-6.33;93.09
75008;BME280;63554;48.940;12.050;2022-12-18T01:27:59;98700.31;;;-6.31;93.45
75008;BME280;63554;48.940;12.050;2022-12-18T01:32:03;98698.44;;;-6.29;92.97
75008;BME280;63554;48.940;12.050;2022-12-18T01:36:08;98719.41;;;-6.27;92.97
75008;BME280;63554;48.940;12.050;2022-12-18T01:40:11;98721.53;;;-6.34;92.50
75008;BME280;63554;48.940;12.050;2022-12-18T01:48:57;98723.47;;;-6.38;92.76
75008;BME280;63554;48.940;12.050;2022-12-18T01:53:04;98727.03;;;-6.39;92.58
75008;BME280;63554;48.940;12.050;2022-12-18T01:57:08;98728.72;;;-6.38;92.61
75008;BME280;63554;48.940;12.050;2022-12-18T02:01:11;98739.13;;;-6.34;92.93
75008;BME280;63554;48.940;12.050;2022-12-18T02:05:16;98725.69;;;-6.30;92.88
75008;BME280;63554;48.940;12.050;2022-12-18T02:09:25;98736.78;;;-6.23;92.77
75008;BME280;63554;48.940;12.050;2022-12-18T02:13:37;98727.81;;;-6.37;92.84
75008;BME280;63554;48.940;12.050;2022-12-18T02:17:44;98737.66;;;-6.40;92.84
75008;BME280;63554;48.940;12.050;2022-12-18T02:21:54;98734.94;;;-6.39;92.76
75008;BME280;63554;48.940;12.050;2022-12-18T02:26:10;98742.44;;;-6.31;92.55
75008;BME280;63554;48.940;12.050;2022-12-18T02:30:17;98727.56;;;-6.32;92.30
75008;BME280;63554;48.940;12.050;2022-12-18T02:34:23;98738.72;;;-6.27;92.80
75008;BME280;63554;48.940;12.050;2022-12-18T02:38:29;98743.81;;;-6.24;92.16
75008;BME280;63554;48.940;12.050;2022-12-18T02:42:34;98744.50;;;-6.20;91.95
75008;BME280;63554;48.940;12.050;2022-12-18T02:46:39;98743.88;;;-6.25;91.97
75008;BME280;63554;48.940;12.050;2022-12-18T02:50:45;98747.13;;;-6.20;92.69
75008;BME280;63554;48.940;12.050;2022-12-18T02:55:00;98741.72;;;-6.17;92.12
75008;BME280;63554;48.940;12.050;2022-12-18T02:59:13;98743.25;;;-6.13;92.13
75008;BME280;63554;48.940;12.050;2022-12-18T03:03:24;98766.09;;;-6.13;91.57
75008;BME280;63554;48.940;12.050;2022-12-18T03:07:36;98753.81;;;-6.13;91.49
75008;BME280;63554;48.940;12.050;2022-12-18T03:11:42;98745.81;;;-6.11;92.00
75008;BME280;63554;48.940;12.050;2022-12-18T03:16:10;98747.06;;;-6.19;92.21
75008;BME280;63554;48.940;12.050;2022-12-18T03:20:17;98740.25;;;-6.23;91.89
75008;BME280;63554;48.940;12.050;2022-12-18T03:24:22;98738.41;;;-6.21;91.93
75008;BME280;63554;48.940;12.050;2022-12-18T03:28:29;98742.50;;;-6.15;92.11
75008;BME280;63554;48.940;12.050;2022-12-18T03:32:42;98726.75;;;-6.17;91.74
75008;BME280;63554;48.940;12.050;2022-12-18T03:36:45;98735.59;;;-6.18;92.53
75008;BME280;63554;48.940;12.050;2022-12-18T03:40:54;98726.69;;;-6.15;91.94
75008;BME280;63554;48.940;12.050;2022-12-18T03:45:02;98717.69;;;-6.11;92.31
75008;BME280;63554;48.940;12.050;2022-12-18T03:49:14;98712.22;;;-6.08;91.99
75008;BME280;63554;48.940;12.050;2022-12-18T03:53:25;98715.63;;;-6.06;92.48
75008;BME280;63554;48.940;12.050;2022-12-18T03:57:32;98710.97;;;-6.01;91.97
75008;BME280;63554;48.940;12.050;2022-12-18T04:01:38;98706.41;;;-5.97;92.49
75008;BME280;63554;48.940;12.050;2022-12-18T04:05:44;98718.81;;;-5.99;91.67
75008;BME280;63554;48.940;12.050;2022-12-18T04:09:48;98741.31;;;-5.93;91.82
75008;BME280;63554;48.940;12.050;2022-12-18T04:13:55;98730.88;;;-5.95;91.68
75008;BME280;63554;48.940;12.050;2022-12-18T04:17:58;98754.16;;;-5.87;91.99
75008;BME280;63554;48.940;12.050;2022-12-18T04:22:02;98746.34;;;-5.89;91.84
75008;BME280;63554;48.940;12.050;2022-12-18T04:26:05;98735.94;;;-5.92;92.27
75008;BME280;63554;48.940;12.050;2022-12-18T04:30:09;98739.59;;;-5.94;91.79
75008;BME280;63554;48.940;12.050;2022-12-18T04:34:11;98741.22;;;-5.92;91.55
75008;BME280;63554;48.940;12.050;2022-12-18T04:38:15;98754.31;;;-5.90;92.04
75008;BME280;63554;48.940;12.050;2022-12-18T04:42:18;98760.28;;;-5.87;91.23
75008;BME280;63554;48.940;12.050;2022-12-18T04:46:21;98753.00;;;-5.82;91.33
75008;BME280;63554;48.940;12.050;2022-12-18T04:50:23;98759.25;;;-5.84;91.71
75008;BME280;63554;48.940;12.050;2022-12-18T04:54:28;98772.44;;;-5.84;91.72
75008;BME280;63554;48.940;12.050;2022-12-18T04:58:30;98766.19;;;-5.82;91.32
75008;BME280;63554;48.940;12.050;2022-12-18T05:02:33;98763.53;;;-5.82;91.74
75008;BME280;63554;48.940;12.050;2022-12-18T05:06:36;98777.31;;;-5.77;91.47
75008;BME280;63554;48.940;12.050;2022-12-18T05:10:40;98772.38;;;-5.83;91.89
75008;BME280;63554;48.940;12.050;2022-12-18T05:14:42;98767.94;;;-5.82;91.86
75008;BME280;63554;48.940;12.050;2022-12-18T05:18:45;98775.06;;;-5.84;91.26
75008;BME280;63554;48.940;12.050;2022-12-18T05:22:48;98775.19;;;-5.86;91.25
75008;BME280;63554;48.940;12.050;2022-12-18T05:26:52;98790.13;;;-5.86;91.13
75008;BME280;63554;48.940;12.050;2022-12-18T05:30:56;98794.88;;;-5.93;91.37
75008;BME280;63554;48.940;12.050;2022-12-18T05:34:59;98794.88;;;-5.93;91.06
75008;BME280;63554;48.940;12.050;2022-12-18T05:39:02;98784.63;;;-5.98;91.86
75008;BME280;63554;48.940;12.050;2022-12-18T05:43:07;98780.13;;;-5.95;91.46
75008;BME280;63554;48.940;12.050;2022-12-18T05:47:10;98795.25;;;-5.99;91.54
75008;BME280;63554;48.940;12.050;2022-12-18T05:51:14;98794.63;;;-6.04;91.63
75008;BME280;63554;48.940;12.050;2022-12-18T05:55:17;98806.88;;;-6.03;91.70
75008;BME280;63554;48.940;12.050;2022-12-18T05:59:21;98804.56;;;-6.09;91.80
75008;BME280;63554;48.940;12.050;2022-12-18T06:03:24;98810.88;;;-6.13;92.15
75008;BME280;63554;48.940;12.050;2022-12-18T06:07:34;98814.22;;;-6.10;92.22
75008;BME280;63554;48.940;12.050;2022-12-18T06:11:37;98807.84;;;-6.06;91.86
75008;BME280;63554;48.940;12.050;2022-12-18T06:15:41;98816.72;;;-6.07;91.59
75008;BME280;63554;48.940;12.050;2022-12-18T06:19:43;98818.56;;;-6.09;92.04
75008;BME280;63554;48.940;12.050;2022-12-18T06:23:46;98829.13;;;-6.09;91.42
75008;BME280;63554;48.940;12.050;2022-12-18T06:27:49;98821.59;;;-6.17;91.17
75008;BME280;63554;48.940;12.050;2022-12-18T06:31:53;98822.31;;;-6.13;91.62
75008;BME280;63554;48.940;12.050;2022-12-18T06:35:59;98824.88;;;-6.11;91.77
75008;BME280;63554;48.940;12.050;2022-12-18T06:40:03;98815.50;;;-6.17;91.80
75008;BME280;63554;48.940;12.050;2022-12-18T06:44:06;98816.47;;;-6.20;91.30
75008;BME280;63554;48.940;12.050;2022-12-18T06:48:11;98825.31;;;-6.21;91.76
75008;BME280;63554;48.940;12.050;2022-12-18T06:52:13;98825.94;;;-6.16;91.72
75008;BME280;63554;48.940;12.050;2022-12-18T06:56:16;98832.28;;;-6.20;92.10
75008;BME280;63554;48.940;12.050;2022-12-18T07:00:19;98850.72;;;-6.20;91.47
75008;BME280;63554;48.940;12.050;2022-12-18T07:04:27;98849.09;;;-5.71;94.23
75008;BME280;63554;48.940;12.050;2022-12-18T07:08:30;98854.91;;;-5.65;93.81
75008;BME280;63554;48.940;12.050;2022-12-18T07:12:33;98856.69;;;-5.99;92.25
75008;BME280;63554;48.940;12.050;2022-12-18T07:16:35;98855.59;;;-6.12;91.22
75008;BME280;63554;48.940;12.050;2022-12-18T07:20:39;98871.41;;;-6.12;91.72
75008;BME280;63554;48.940;12.050;2022-12-18T07:24:42;98866.22;;;-6.13;91.32
75008;BME280;63554;48.940;12.050;2022-12-18T07:28:45;98858.03;;;-6.07;90.68
75008;BME280;63554;48.940;12.050;2022-12-18T07:32:48;98848.25;;;-6.05;90.83
75008;BME280;63554;48.940;12.050;2022-12-18T07:36:52;98842.03;;;-6.04;90.86
75008;BME280;63554;48.940;12.050;2022-12-18T07:41:00;98854.50;;;-6.08;90.94
75008;BME280;63554;48.940;12.050;2022-12-18T07:45:03;98846.47;;;-6.05;90.08
75008;BME280;63554;48.940;12.050;2022-12-18T07:49:06;98859.31;;;-5.99;90.80
75008;BME280;63554;48.940;12.050;2022-12-18T07:53:10;98854.31;;;-6.03;91.09
75008;BME280;63554;48.940;12.050;2022-12-18T07:57:14;98871.72;;;-6.01;91.25
75008;BME280;63554;48.940;12.050;2022-12-18T08:01:37;98868.47;;;-6.06;90.96
75008;BME280;63554;48.940;12.050;2022-12-18T08:05:40;98857.31;;;-6.11;91.13
75008;BME280;63554;48.940;12.050;2022-12-18T08:09:44;98866.84;;;-6.08;91.15
75008;BME280;63554;48.940;12.050;2022-12-18T08:13:47;98877.94;;;-6.02;91.09
75008;BME280;63554;48.940;12.050;2022-12-18T08:17:50;98879.38;;;-5.96;90.64
75008;BME280;63554;48.940;12.050;2022-12-18T08:21:52;98887.19;;;-5.44;93.08
75008;BME280;63554;48.940;12.050;2022-12-18T08:25:57;98888.84;;;-5.59;91.37
75008;BME280;63554;48.940;12.050;2022-12-18T08:30:00;98892.19;;;-5.55;90.37
75008;BME280;63554;48.940;12.050;2022-12-18T08:34:04;98899.56;;;-5.62;89.62
75008;BME280;63554;48.940;12.050;2022-12-18T08:38:07;98910.25;;;-5.65;89.43
75008;BME280;63554;48.940;12.050;2022-12-18T08:42:11;98913.28;;;-5.55;89.52
75008;BME280;63554;48.940;12.050;2022-12-18T08:46:34;98910.75;;;-5.57;88.28
75008;BME280;63554;48.940;12.050;2022-12-18T08:50:37;98901.97;;;-5.74;88.59
75008;BME280;63554;48.940;12.050;2022-12-18T08:54:40;98916.69;;;-5.70;89.32
75008;BME280;63554;48.940;12.050;2022-12-18T08:58:44;98920.34;;;-5.56;88.90
75008;BME280;63554;48.940;12.050;2022-12-18T09:02:47;98919.94;;;-5.48;88.72
75008;BME280;63554;48.940;12.050;2022-12-18T09:06:50;98920.09;;;-5.51;88.97
75008;BME280;63554;48.940;12.050;2022-12-18T09:10:52;98921.38;;;-5.58;89.03
75008;BME280;63554;48.940;12.050;2022-12-18T09:14:56;98914.38;;;-5.59;89.06
75008;BME280;63554;48.940;12.050;2022-12-18T09:19:00;98911.03;;;-5.63;89.17
75008;BME280;63554;48.940;12.050;2022-12-18T09:23:03;98905.38;;;-5.55;88.59
75008;BME280;63554;48.940;12.050;2022-12-18T09:27:06;98908.19;;;-5.58;88.62
75008;BME280;63554;48.940;12.050;2022-12-18T09:31:15;98902.13;;;-5.60;88.64
75008;BME280;63554;48.940;12.050;2022-12-18T09:35:18;98894.03;;;-5.57;88.90
75008;BME280;63554;48.940;12.050;2022-12-18T09:39:21;98902.91;;;-5.58;88.65
75008;BME280;63554;48.940;12.050;2022-12-18T09:43:28;98896.69;;;-5.57;88.50
75008;BME280;63554;48.940;12.050;2022-12-18T09:47:37;98900.19;;;-5.57;88.84
75008;BME280;63554;48.940;12.050;2022-12-18T09:51:45;98897.31;;;-5.52;88.76
75008;BME280;63554;48.940;12.050;2022-12-18T09:55:51;98894.41;;;-5.47;88.53
75008;BME280;63554;48.940;12.050;2022-12-18T09:59:56;98896.34;;;-5.51;87.91
75008;BME280;63554;48.940;12.050;2022-12-18T10:04:02;98875.19;;;-5.49;87.00
75008;BME280;63554;48.940;12.050;2022-12-18T10:08:12;98880.53;;;-5.51;87.27
75008;BME280;63554;48.940;12.050;2022-12-18T10:12:21;98882.25;;;-5.50;87.10
75008;BME280;63554;48.940;12.050;2022-12-18T10:16:35;98875.19;;;-5.49;87.81
75008;BME280;63554;48.940;12.050;2022-12-18T10:20:47;98881.22;;;-5.47;87.21
75008;BME280;63554;48.940;12.050;2022-12-18T10:24:55;98876.66;;;-5.44;87.42
75008;BME280;63554;48.940;12.050;2022-12-18T10:29:01;98875.16;;;-5.32;87.80
75008;BME280;63554;48.940;12.050;2022-12-18T10:33:10;98881.53;;;-5.20;87.04
75008;BME280;63554;48.940;12.050;2022-12-18T10:37:17;98867.16;;;-5.14;86.24
75008;BME280;63554;48.940;12.050;2022-12-18T10:41:24;98864.19;;;-5.24;87.00
75008;BME280;63554;48.940;12.050;2022-12-18T10:45:29;98857.81;;;-5.20;86.40
75008;BME280;63554;48.940;12.050;2022-12-18T10:49:33;98848.44;;;-5.26;85.96
75008;BME280;63554;48.940;12.050;2022-12-18T10:53:40;98858.13;;;-5.26;86.13
75008;BME280;63554;48.940;12.050;2022-12-18T10:57:44;98851.47;;;-5.33;86.53
75008;BME280;63554;48.940;12.050;2022-12-18T11:01:49;98856.41;;;-5.27;85.88
75008;BME280;63554;48.940;12.050;2022-12-18T11:06:01;98848.06;;;-5.36;86.00
75008;BME280;63554;48.940;12.050;2022-12-18T11:10:16;98856.25;;;-5.24;86.28
75008;BME280;63554;48.940;12.050;2022-12-18T11:14:22;98856.94;;;-5.21;85.66
75008;BME280;63554;48.940;12.050;2022-12-18T11:18:28;98859.00;;;-5.10;85.59
75008;BME280;63554;48.940;12.050;2022-12-18T11:22:33;98864.38;;;-5.11;85.46
75008;BME280;63554;48.940;12.050;2022-12-18T11:26:38;98873.13;;;-5.11;85.60
75008;BME280;63554;48.940;12.050;2022-12-18T11:30:44;98862.03;;;-5.18;85.68
75008;BME280;63554;48.940;12.050;2022-12-18T11:34:50;98860.34;;;-5.19;85.77
75008;BME280;63554;48.940;12.050;2022-12-18T11:39:03;98858.22;;;-5.12;85.95
75008;BME280;63554;48.940;12.050;2022-12-18T11:43:13;98859.75;;;-5.08;85.14
75008;BME280;63554;48.940;12.050;2022-12-18T11:47:26;98859.34;;;-5.16;85.15
75008;BME280;63554;48.940;12.050;2022-12-18T11:51:33;98854.31;;;-5.05;85.96
75008;BME280;63554;48.940;12.050;2022-12-18T11:55:42;98857.72;;;-5.03;84.77
75008;BME280;63554;48.940;12.050;2022-12-18T11:59:56;98858.41;;;-4.99;84.90
75008;BME280;63554;48.940;12.050;2022-12-18T12:04:19;98865.06;;;-4.92;84.71
75008;BME280;63554;48.940;12.050;2022-12-18T12:08:36;98854.25;;;-4.87;84.06
75008;BME280;63554;48.940;12.050;2022-12-18T12:13:00;98843.41;;;-4.99;84.02
75008;BME280;63554;48.940;12.050;2022-12-18T12:17:12;98829.53;;;-4.86;84.29
75008;BME280;63554;48.940;12.050;2022-12-18T12:21:25;98822.31;;;-4.99;84.27
75008;BME280;63554;48.940;12.050;2022-12-18T12:25:37;98817.97;;;-5.00;84.41
75008;BME280;63554;48.940;12.050;2022-12-18T12:29:50;98815.13;;;-4.81;84.60
75008;BME280;63554;48.940;12.050;2022-12-18T12:34:04;98814.97;;;-4.78;84.03
75008;BME280;63554;48.940;12.050;2022-12-18T12:38:13;98818.13;;;-4.87;84.26
75008;BME280;63554;48.940;12.050;2022-12-18T12:42:29;98815.34;;;-5.00;84.05
75008;BME280;63554;48.940;12.050;2022-12-18T12:46:51;98817.22;;;-5.02;84.91
75008;BME280;63554;48.940;12.050;2022-12-18T12:50:56;98806.66;;;-5.02;84.91
75008;BME280;63554;48.940;12.050;2022-12-18T12:55:02;98833.81;;;-5.00;84.95
75008;BME280;63554;48.940;12.050;2022-12-18T12:59:19;98822.56;;;-5.03;84.78
75008;BME280;63554;48.940;12.050;2022-12-18T13:03:35;98811.41;;;-4.92;83.92
75008;BME280;63554;48.940;12.050;2022-12-18T13:07:50;98806.31;;;-4.95;83.88
75008;BME280;63554;48.940;12.050;2022-12-18T13:12:02;98803.66;;;-4.95;84.00
75008;BME280;63554;48.940;12.050;2022-12-18T13:16:24;98811.59;;;-5.11;83.99
75008;BME280;63554;48.940;12.050;2022-12-18T13:20:32;98815.09;;;-5.11;84.66
75008;BME280;63554;48.940;12.050;2022-12-18T13:24:38;98822.31;;;-4.99;84.83
75008;BME280;63554;48.940;12.050;2022-12-18T13:28:52;98816.88;;;-4.95;84.08
75008;BME280;63554;48.940;12.050;2022-12-18T13:33:38;98818.63;;;-4.96;84.82
75008;BME280;63554;48.940;12.050;2022-12-18T13:38:02;98810.06;;;-5.00;84.26
75008;BME280;63554;48.940;12.050;2022-12-18T13:42:39;98814.41;;;-5.14;84.22
75008;BME280;63554;48.940;12.050;2022-12-18T13:47:01;98812.38;;;-5.25;84.72
75008;BME280;63554;48.940;12.050;2022-12-18T13:51:06;98812.84;;;-5.34;85.69
75008;BME280;63554;48.940;12.050;2022-12-18T13:55:16;98793.78;;;-5.40;85.55
75008;BME280;63554;48.940;12.050;2022-12-18T13:59:23;98797.72;;;-5.31;85.65
75008;BME280;63554;48.940;12.050;2022-12-18T14:03:28;98794.53;;;-5.38;85.48
75008;BME280;63554;48.940;12.050;2022-12-18T14:07:34;98803.16;;;-5.34;85.61
75008;BME280;63554;48.940;12.050;2022-12-18T14:11:52;98812.84;;;-5.34;85.26
75008;BME280;63554;48.940;12.050;2022-12-18T14:16:18;98799.66;;;-5.34;85.23
75008;BME280;63554;48.940;12.050;2022-12-18T14:20:22;98795.31;;;-5.20;84.28
75008;BME280;63554;48.940;12.050;2022-12-18T14:24:26;98793.56;;;-5.19;84.00
75008;BME280;63554;48.940;12.050;2022-12-18T14:28:43;98796.75;;;-5.14;84.35
75008;BME280;63554;48.940;12.050;2022-12-18T14:33:01;98801.88;;;-5.11;83.49
75008;BME280;63554;48.940;12.050;2022-12-18T14:37:04;98787.56;;;-5.07;84.75
75008;BME280;63554;48.940;12.050;2022-12-18T14:41:12;98773.28;;;-5.19;84.60
75008;BME280;63554;48.940;12.050;2022-12-18T14:45:35;98780.00;;;-5.45;83.85
75008;BME280;63554;48.940;12.050;2022-12-18T14:49:45;98782.00;;;-5.66;84.49
75008;BME280;63554;48.940;12.050;2022-12-18T14:53:52;98791.47;;;-5.46;86.90
75008;BME280;63554;48.940;12.050;2022-12-18T14:57:57;98793.41;;;-5.65;85.15
75008;BME280;63554;48.940;12.050;2022-12-18T15:02:03;98794.66;;;-5.72;84.26
75008;BME280;63554;48.940;12.050;2022-12-18T15:06:21;98790.19;;;-6.04;84.28
75008;BME280;63554;48.940;12.050;2022-12-18T15:10:29;98802.19;;;-3.94;93.94
75008;BME280;63554;48.940;12.050;2022-12-18T15:14:37;98797.53;;;-1.72;95.38
75008;BME280;63554;48.940;12.050;2022-12-18T15:18:42;98797.78;;;-2.28;95.31
75008;BME280;63554;48.940;12.050;2022-12-18T15:22:47;98802.31;;;-3.67;94.69
75008;BME280;63554;48.940;12.050;2022-12-18T15:26:50;98802.19;;;-4.69;93.94
75008;BME280;63554;48.940;12.050;2022-12-18T15:31:05;98810.66;;;-5.26;93.14
75008;BME280;63554;48.940;12.050;2022-12-18T15:35:13;98803.69;;;-5.61;90.92
75008;BME280;63554;48.940;12.050;2022-12-18T15:39:18;98797.94;;;-5.85;89.02
75008;BME280;63554;48.940;12.050;2022-12-18T15:43:22;98808.06;;;-5.93;88.71
75008;BME280;63554;48.940;12.050;2022-12-18T15:47:38;98815.47;;;-6.00;87.44
75008;BME280;63554;48.940;12.050;2022-12-18T15:51:41;98823.16;;;-6.12;86.04
75008;BME280;63554;48.940;12.050;2022-12-18T15:55:46;98820.00;;;-6.19;86.22
75008;BME280;63554;48.940;12.050;2022-12-18T16:00:11;98811.69;;;-6.29;85.21
75008;BME280;63554;48.940;12.050;2022-12-18T16:04:16;98815.56;;;-6.36;84.71
75008;BME280;63554;48.940;12.050;2022-12-18T16:08:19;98814.94;;;-6.41;84.75
75008;BME280;63554;48.940;12.050;2022-12-18T16:12:24;98809.91;;;-6.46;84.37
75008;BME280;63554;48.940;12.050;2022-12-18T16:16:26;98816.31;;;-6.51;84.95
75008;BME280;63554;48.940;12.050;2022-12-18T16:20:30;98814.63;;;-6.52;84.66
75008;BME280;63554;48.940;12.050;2022-12-18T16:24:33;98806.03;;;-6.56;84.65
75008;BME280;63554;48.940;12.050;2022-12-18T16:28:38;98808.97;;;-6.62;84.53
75008;BME280;63554;48.940;12.050;2022-12-18T16:32:48;98800.75;;;-6.73;84.78
75008;BME280;63554;48.940;12.050;2022-12-18T16:36:52;98793.22;;;-6.81;85.12
75008;BME280;63554;48.940;12.050;2022-12-18T16:40:59;98794.44;;;-6.88;84.10
75008;BME280;63554;48.940;12.050;2022-12-18T16:45:21;98791.22;;;-6.93;84.55
75008;BME280;63554;48.940;12.050;2022-12-18T16:49:23;98784.66;;;-7.04;84.55
75008;BME280;63554;48.940;12.050;2022-12-18T16:53:26;98797.81;;;-7.04;84.44
75008;BME280;63554;48.940;12.050;2022-12-18T16:57:30;98792.72;;;-7.07;84.32
75008;BME280;63554;48.940;12.050;2022-12-18T17:01:34;98798.13;;;-7.10;84.89
75008;BME280;63554;48.940;12.050;2022-12-18T17:05:37;98787.88;;;-7.16;83.94
75008;BME280;63554;48.940;12.050;2022-12-18T17:09:40;98790.75;;;-7.21;84.60
75008;BME280;63554;48.940;12.050;2022-12-18T17:13:42;98802.47;;;-7.28;84.48
75008;BME280;63554;48.940;12.050;2022-12-18T17:17:47;98795.78;;;-7.35;84.36
75008;BME280;63554;48.940;12.050;2022-12-18T17:21:50;98796.97;;;-7.41;84.27
75008;BME280;63554;48.940;12.050;2022-12-18T17:25:54;98798.00;;;-7.45;84.29
75008;BME280;63554;48.940;12.050;2022-12-18T17:29:57;98797.09;;;-7.44;84.35
75008;BME280;63554;48.940;12.050;2022-12-18T17:34:02;98804.25;;;-7.47;84.83
75008;BME280;63554;48.940;12.050;2022-12-18T17:38:05;98804.47;;;-7.52;84.17
75008;BME280;63554;48.940;12.050;2022-12-18T17:42:07;98802.03;;;-7.57;84.01
75008;BME280;63554;48.940;12.050;2022-12-18T17:46:16;98791.41;;;-7.53;84.64
75008;BME280;63554;48.940;12.050;2022-12-18T17:50:20;98790.69;;;-7.57;83.88
75008;BME280;63554;48.940;12.050;2022-12-18T17:54:22;98776.91;;;-7.62;83.70
75008;BME280;63554;48.940;12.050;2022-12-18T17:58:25;98783.94;;;-7.63;83.77
75008;BME280;63554;48.940;12.050;2022-12-18T18:02:28;98782.44;;;-7.68;83.64
75008;BME280;63554;48.940;12.050;2022-12-18T18:06:33;98779.03;;;-7.70;84.49
75008;BME280;63554;48.940;12.050;2022-12-18T18:10:39;98765.25;;;-7.76;83.69
75008;BME280;63554;48.940;12.050;2022-12-18T18:14:43;98767.41;;;-7.84;84.22
75008;BME280;63554;48.940;12.050;2022-12-18T18:18:46;98772.91;;;-7.90;84.11
75008;BME280;63554;48.940;12.050;2022-12-18T18:22:50;98774.31;;;-8.02;84.57
75008;BME280;63554;48.940;12.050;2022-12-18T18:26:55;98781.28;;;-8.01;84.72
75008;BME280;63554;48.940;12.050;2022-12-18T18:31:03;98772.69;;;-8.04;84.55
75008;BME280;63554;48.940;12.050;2022-12-18T18:35:07;98785.53;;;-7.98;85.25
75008;BME280;63554;48.940;12.050;2022-12-18T18:39:31;98781.34;;;-8.02;86.91
75008;BME280;63554;48.940;12.050;2022-12-18T18:43:34;98784.69;;;-7.99;87.82
75008;BME280;63554;48.940;12.050;2022-12-18T18:47:37;98786.41;;;-7.98;88.37
75008;BME280;63554;48.940;12.050;2022-12-18T18:51:40;98798.03;;;-7.84;89.18
75008;BME280;63554;48.940;12.050;2022-12-18T18:55:44;98795.41;;;-7.84;88.95
75008;BME280;63554;48.940;12.050;2022-12-18T19:00:05;98784.06;;;-7.85;88.54
75008;BME280;63554;48.940;12.050;2022-12-18T19:04:08;98793.13;;;-7.92;88.98
75008;BME280;63554;48.940;12.050;2022-12-18T19:08:11;98788.31;;;-7.82;88.49
75008;BME280;63554;48.940;12.050;2022-12-18T19:12:18;98774.56;;;-7.87;88.74
75008;BME280;63554;48.940;12.050;2022-12-18T19:16:41;98770.72;;;-7.99;89.22
75008;BME280;63554;48.940;12.050;2022-12-18T19:20:54;98758.81;;;-8.08;89.82
75008;BME280;63554;48.940;12.050;2022-12-18T19:24:57;98760.94;;;-8.16;89.71
75008;BME280;63554;48.940;12.050;2022-12-18T19:29:01;98759.44;;;-8.22;90.35
75008;BME280;63554;48.940;12.050;2022-12-18T19:33:04;98759.72;;;-8.28;90.79
75008;BME280;63554;48.940;12.050;2022-12-18T19:37:27;98767.59;;;-8.28;90.60
75008;BME280;63554;48.940;12.050;2022-12-18T19:41:30;98759.88;;;-8.31;90.54
75008;BME280;63554;48.940;12.050;2022-12-18T19:45:37;98759.78;;;-8.29;90.93
75008;BME280;63554;48.940;12.050;2022-12-18T19:49:40;98752.69;;;-8.27;91.38
75008;BME280;63554;48.940;12.050;2022-12-18T19:53:43;98750.84;;;-8.25;91.27
75008;BME280;63554;48.940;12.050;2022-12-18T19:57:46;98751.72;;;-8.25;91.05
75008;BME280;63554;48.940;12.050;2022-12-18T20:01:50;98758.66;;;-8.24;91.04
75008;BME280;63554;48.940;12.050;2022-12-18T20:05:55;98761.09;;;-8.19;92.00
75008;BME280;63554;48.940;12.050;2022-12-18T20:09:58;98742.50;;;-8.15;91.50
75008;BME280;63554;48.940;12.050;2022-12-18T20:14:10;98741.31;;;-8.07;91.53
75008;BME280;63554;48.940;12.050;2022-12-18T20:18:14;98757.63;;;-8.01;91.84
75008;BME280;63554;48.940;12.050;2022-12-18T20:22:18;98749.63;;;-7.98;91.70
75008;BME280;63554;48.940;12.050;2022-12-18T20:26:20;98766.81;;;-7.90;92.11
75008;BME280;63554;48.940;12.050;2022-12-18T20:30:23;98769.44;;;-7.90;91.57
75008;BME280;63554;48.940;12.050;2022-12-18T20:34:27;98765.91;;;-7.89;91.47
75008;BME280;63554;48.940;12.050;2022-12-18T20:38:31;98760.56;;;-7.88;91.77
75008;BME280;63554;48.940;12.050;2022-12-18T20:42:35;98760.97;;;-7.78;92.28
75008;BME280;63554;48.940;12.050;2022-12-18T20:46:38;98767.81;;;-7.74;92.07
75008;BME280;63554;48.940;12.050;2022-12-18T20:50:42;98750.28;;;-7.73;92.07
75008;BME280;63554;48.940;12.050;2022-12-18T20:54:44;98740.25;;;-7.65;92.52
75008;BME280;63554;48.940;12.050;2022-12-18T20:58:48;98744.44;;;-7.61;91.75
75008;BME280;63554;48.940;12.050;2022-12-18T21:02:55;98746.78;;;-7.55;92.00
75008;BME280;63554;48.940;12.050;2022-12-18T21:06:59;98739.59;;;-7.51;91.34
75008;BME280;63554;48.940;12.050;2022-12-18T21:11:14;98747.25;;;-7.47;91.23
75008;BME280;63554;48.940;12.050;2022-12-18T21:15:31;98757.34;;;-7.38;91.53
75008;BME280;63554;48.940;12.050;2022-12-18T21:19:33;98752.09;;;-7.38;91.22
75008;BME280;63554;48.940;12.050;2022-12-18T21:23:38;98732.63;;;-7.33;91.60
75008;BME280;63554;48.940;12.050;2022-12-18T21:27:40;98737.44;;;-7.24;91.24
75008;BME280;63554;48.940;12.050;2022-12-18T21:31:44;98731.25;;;-7.23;91.01
75008;BME280;63554;48.940;12.050;2022-12-18T21:35:46;98733.81;;;-7.22;91.09